Bartlett, Ohio
Current Conditions -  °F | °C
As of 4:53 AM on Monday 22 Dec 2014 (Local Time) from KPKB Reporting Station
Overcast Overcast  
Wind Chill: 29°   Ceiling: 4600
Heat Index: 29°   Visibility: 8mi
Dew Point: 25°   Wind: 3mph
Humidity: 85%   Direction: 100°E
Pressure: 30.1"   Gusts: NA
Location:  39.42°N, 81.82°W
Report Text: KPKB 220953Z AUTO 10003KT 8SM OVC046 M02/M04 A3010 RMK AO2 SLP200 T10171039
Loading
Personal Weather Stations






























Interactive Weather Map New forecast layout! Learn more

10-Day Weather Forecast

Advertisements
Track Severe Weather on mobile